Time;durP1;ratioP1;P1;durP2;ratioP2;P2;SDS_P1;SDS_P2;PMS_P1;PMS_P2;Temp;Humidity;BMP_temperature;BMP_pressure;BME280_temperature;BME280_humidity;BME280_pressure;Samples;Min_cycle;Max_cycle;Signal;HPM_P1;HPM_P2
2023/05/18 00:01:55;;;;;;;;;;;;;;;7.30;100.00;96476.34;5044717;28;19932;-79
2023/05/18 00:04:24;;;;;;;;;;;;;;;7.32;100.00;96476.94;5023384;28;20016;-80
2023/05/18 00:06:55;;;;;;;;;;;;;;;7.28;100.00;96475.72;5028707;28;20015;-79
2023/05/18 00:09:23;;;;;;;;;;;;;;;7.24;100.00;96471.78;5039271;28;19932;-79
2023/05/18 00:11:50;;;;;;;;;;;;;;;7.20;100.00;96471.38;5025981;28;19960;-78
2023/05/18 00:14:17;;;;;;;;;;;;;;;7.23;100.00;96478.19;5026617;28;19929;-80
2023/05/18 00:16:44;;;;;;;;;;;;;;;7.26;100.00;96475.09;5027350;28;19925;-78
2023/05/18 00:19:13;;;;;;;;;;;;;;;7.27;100.00;96474.06;5025564;28;19932;-79
2023/05/18 00:21:42;;;;;;;;;;;;;;;7.23;100.00;96470.13;5023564;28;19926;-78
2023/05/18 00:24:09;;;;;;;;;;;;;;;7.19;100.00;96479.66;5028541;28;19979;-78
2023/05/18 00:26:37;;;;;;;;;;;;;;;7.11;100.00;96475.31;5030326;28;19968;-79
2023/05/18 00:29:03;;;;;;;;;;;;;;;7.08;100.00;96472.19;5030552;28;19925;-79
2023/05/18 00:31:31;;;;;;;;;;;;;;;7.10;100.00;96475.50;5026863;28;20005;-78
2023/05/18 00:33:58;;;;;;;;;;;;;;;7.05;100.00;96475.31;5030396;28;19925;-79
2023/05/18 00:36:25;;;;;;;;;;;;;;;7.05;100.00;96473.44;5043088;28;19928;-78
2023/05/18 00:38:53;;;;;;;;;;;;;;;7.06;100.00;96471.59;5030161;28;19925;-79
2023/05/18 00:41:21;;;;;;;;;;;;;;;7.08;100.00;96482.94;5017259;28;19932;-79
2023/05/18 00:43:48;;;;;;;;;;;;;;;6.99;100.00;96473.41;5039931;28;19926;-78
2023/05/18 00:46:15;;;;;;;;;;;;;;;6.91;100.00;96470.94;5020955;28;19933;-79
2023/05/18 00:48:41;;;;;;;;;;;;;;;6.88;100.00;96469.50;5028531;28;19929;-78
2023/05/18 00:51:08;;;;;;;;;;;;;;;6.83;100.00;96474.63;5044581;28;19948;-79
2023/05/18 00:53:35;;;;;;;;;;;;;;;6.77;100.00;96473.59;5034171;28;20110;-79
2023/05/18 00:56:04;;;;;;;;;;;;;;;6.72;100.00;96473.38;5025230;28;19929;-79
2023/05/18 00:58:31;;;;;;;;;;;;;;;6.71;100.00;96471.75;5034418;28;19926;-78
2023/05/18 01:00:57;;;;;;;;;;;;;;;6.74;100.00;96460.59;5022550;28;19925;-78
2023/05/18 01:03:28;;;;;;;;;;;;;;;6.77;100.00;96464.72;5022236;28;19929;-79
2023/05/18 01:05:56;;;;;;;;;;;;;;;6.77;100.00;96467.41;5005890;28;19953;-79
2023/05/18 01:08:23;;;;;;;;;;;;;;;6.78;100.00;96464.53;4989582;28;19929;-79
2023/05/18 01:10:54;;;;;;;;;;;;;;;6.76;100.00;96465.75;4991184;28;19925;-79
2023/05/18 01:13:26;;;;;;;;;;;;;;;6.64;100.00;96459.31;4976886;28;19929;-78
2023/05/18 01:15:54;;;;;;;;;;;;;;;6.54;100.00;96454.38;4991858;28;19926;-80
2023/05/18 01:18:27;;;;;;;;;;;;;;;6.56;100.00;96454.13;5006242;28;19925;-79
2023/05/18 01:20:58;;;;;;;;;;;;;;;6.58;100.00;96460.97;4988959;28;19980;-78
2023/05/18 01:23:44;;;;;;;;;;;;;;;6.56;100.00;96454.97;4990519;28;19992;-79
2023/05/18 01:26:23;;;;;;;;;;;;;;;6.44;100.00;96461.97;5007442;28;20056;-80
2023/05/18 01:28:51;;;;;;;;;;;;;;;6.38;100.00;96460.88;4990428;28;19932;-79
2023/05/18 01:31:18;;;;;;;;;;;;;;;6.33;100.00;96458.00;4991267;28;19940;-79
2023/05/18 01:33:47;;;;;;;;;;;;;;;6.30;100.00;96455.69;4981311;28;20129;-78
2023/05/18 01:36:14;;;;;;;;;;;;;;;6.25;100.00;96460.03;4987511;28;19995;-78
2023/05/18 01:38:42;;;;;;;;;;;;;;;6.19;100.00;96456.31;5002253;28;19949;-79
2023/05/18 01:41:12;;;;;;;;;;;;;;;6.10;100.00;96454.81;5002746;28;19926;-79
2023/05/18 01:43:47;;;;;;;;;;;;;;;6.12;100.00;96446.59;4991672;28;19932;-79
2023/05/18 01:46:18;;;;;;;;;;;;;;;6.11;100.00;96448.44;4993403;28;20000;-79
2023/05/18 01:48:48;;;;;;;;;;;;;;;6.12;100.00;96449.25;4989533;28;19925;-79
2023/05/18 01:51:16;;;;;;;;;;;;;;;6.13;100.00;96453.56;4993876;28;19953;-78
2023/05/18 01:53:44;;;;;;;;;;;;;;;6.18;100.00;96445.78;4992158;28;19932;-79
2023/05/18 01:56:13;;;;;;;;;;;;;;;6.20;100.00;96452.59;4982698;28;19934;-79
2023/05/18 01:58:40;;;;;;;;;;;;;;;6.23;100.00;96441.44;4987282;28;19926;-78
2023/05/18 02:01:08;;;;;;;;;;;;;;;6.27;100.00;96441.88;4990253;28;19951;-79
2023/05/18 02:03:35;;;;;;;;;;;;;;;6.34;100.00;96445.41;5005461;28;19948;-79
2023/05/18 02:06:02;;;;;;;;;;;;;;;6.36;100.00;96440.69;5028854;28;20011;-79
2023/05/18 02:08:29;;;;;;;;;;;;;;;6.31;100.00;96446.63;5026598;28;19933;-79
2023/05/18 02:10:55;;;;;;;;;;;;;;;6.30;100.00;96442.31;5023917;28;19932;-79
2023/05/18 02:13:22;;;;;;;;;;;;;;;6.34;100.00;96437.38;5021461;28;20012;-79
2023/05/18 02:15:49;;;;;;;;;;;;;;;6.35;100.00;96437.19;5027734;28;19925;-79
2023/05/18 02:18:17;;;;;;;;;;;;;;;6.36;100.00;96438.84;5041572;28;20027;-79
2023/05/18 02:20:47;;;;;;;;;;;;;;;6.44;100.00;96441.34;5021362;28;19925;-78
2023/05/18 02:23:14;;;;;;;;;;;;;;;6.46;100.00;96436.56;5027127;28;19933;-80
2023/05/18 02:25:43;;;;;;;;;;;;;;;6.35;100.00;96439.03;5024001;28;19926;-79
2023/05/18 02:28:10;;;;;;;;;;;;;;;6.28;100.00;96436.34;5028019;28;19925;-79
2023/05/18 02:30:37;;;;;;;;;;;;;;;6.24;100.00;96439.59;5026390;28;19929;-79
2023/05/18 02:33:04;;;;;;;;;;;;;;;6.20;100.00;96427.63;5023796;28;19933;-78
2023/05/18 02:35:32;;;;;;;;;;;;;;;6.19;100.00;96431.34;5030503;28;19941;-78
2023/05/18 02:37:59;;;;;;;;;;;;;;;6.23;100.00;96427.22;5043853;28;19980;-79
2023/05/18 02:40:26;;;;;;;;;;;;;;;6.28;100.00;96420.25;5030511;28;19944;-79
2023/05/18 02:42:52;;;;;;;;;;;;;;;6.30;100.00;96428.06;5047101;28;19987;-79
2023/05/18 02:45:20;;;;;;;;;;;;;;;6.34;100.00;96429.31;5035352;28;19932;-79
2023/05/18 02:47:47;;;;;;;;;;;;;;;6.32;100.00;96417.97;5023770;28;19967;-78
2023/05/18 02:50:14;;;;;;;;;;;;;;;6.30;100.00;96425.38;5029411;28;19932;-79
2023/05/18 02:52:48;;;;;;;;;;;;;;;6.29;100.00;96429.13;5046170;28;20028;-79
2023/05/18 02:55:16;;;;;;;;;;;;;;;6.27;100.00;96426.63;5023166;28;19929;-79
2023/05/18 02:58:03;;;;;;;;;;;;;;;6.24;100.00;96420.84;5034571;28;19925;-79
2023/05/18 03:01:06;;;;;;;;;;;;;;;6.27;100.00;96412.41;5012442;28;19955;-79
2023/05/18 03:03:40;;;;;;;;;;;;;;;6.27;100.00;96418.59;5035862;28;19925;-79
2023/05/18 03:06:08;;;;;;;;;;;;;;;6.26;100.00;96424.16;5044390;28;19951;-78
2023/05/18 03:08:36;;;;;;;;;;;;;;;6.30;100.00;96417.34;5043725;28;19979;-79
2023/05/18 03:11:04;;;;;;;;;;;;;;;6.37;100.00;96410.16;5031429;28;19956;-78
2023/05/18 03:13:31;;;;;;;;;;;;;;;6.43;100.00;96409.34;5030868;28;19932;-78
2023/05/18 03:15:58;;;;;;;;;;;;;;;6.46;100.00;96409.75;5050997;28;19936;-79
2023/05/18 03:18:25;;;;;;;;;;;;;;;6.48;100.00;96409.53;5027197;28;19927;-79
2023/05/18 03:20:54;;;;;;;;;;;;;;;6.52;100.00;96409.97;5028166;28;19925;-79
2023/05/18 03:23:21;;;;;;;;;;;;;;;6.53;100.00;96399.06;5044225;28;19932;-79
2023/05/18 03:25:53;;;;;;;;;;;;;;;6.54;100.00;96408.75;5032408;28;19948;-78
2023/05/18 03:28:20;;;;;;;;;;;;;;;6.55;100.00;96410.38;5036234;28;19924;-79
2023/05/18 03:30:47;;;;;;;;;;;;;;;6.56;100.00;96413.91;5032438;28;20070;-79
2023/05/18 03:33:14;;;;;;;;;;;;;;;6.57;100.00;96415.56;5026923;28;20214;-78
2023/05/18 03:35:41;;;;;;;;;;;;;;;6.57;100.00;96410.19;5041647;28;19925;-79
2023/05/18 03:38:08;;;;;;;;;;;;;;;6.55;100.00;96413.06;5022062;28;19929;-78
2023/05/18 03:40:37;;;;;;;;;;;;;;;6.50;100.00;96415.53;5053348;28;19932;-79
2023/05/18 03:43:06;;;;;;;;;;;;;;;6.47;100.00;96415.94;5047925;28;19933;-79
2023/05/18 03:45:33;;;;;;;;;;;;;;;6.51;100.00;96417.19;5035226;28;20033;-79
2023/05/18 03:48:00;;;;;;;;;;;;;;;6.52;100.00;96416.19;5025376;28;19932;-79
2023/05/18 03:50:28;;;;;;;;;;;;;;;6.53;100.00;96419.69;5046388;28;20008;-78
2023/05/18 03:52:55;;;;;;;;;;;;;;;6.54;100.00;96426.72;5022509;28;19925;-78
2023/05/18 03:55:22;;;;;;;;;;;;;;;6.51;100.00;96433.28;5029385;28;19925;-79
2023/05/18 03:57:50;;;;;;;;;;;;;;;6.51;100.00;96427.94;5035162;28;19929;-79
2023/05/18 04:00:19;;;;;;;;;;;;;;;6.53;100.00;96430.41;5044889;28;19925;-78
2023/05/18 04:02:50;;;;;;;;;;;;;;;6.54;100.00;96427.53;5021657;28;19925;-78
2023/05/18 04:05:20;;;;;;;;;;;;;;;6.57;100.00;96437.00;5029788;28;19926;-79
2023/05/18 04:07:47;;;;;;;;;;;;;;;6.55;100.00;96437.22;5043951;28;19979;-79
2023/05/18 04:10:16;;;;;;;;;;;;;;;6.54;100.00;96448.16;5030080;28;19925;-79
2023/05/18 04:12:43;;;;;;;;;;;;;;;6.46;100.00;96449.19;5040645;28;19933;-79
2023/05/18 04:15:13;;;;;;;;;;;;;;;6.44;100.00;96448.53;5039979;28;19925;-78
2023/05/18 04:17:44;;;;;;;;;;;;;;;6.43;100.00;96458.44;5024515;28;19925;-78
2023/05/18 04:20:12;;;;;;;;;;;;;;;6.42;100.00;96455.97;5015771;28;19933;-78
2023/05/18 04:22:42;;;;;;;;;;;;;;;6.45;100.00;96460.94;5039342;28;19975;-79
2023/05/18 04:25:10;;;;;;;;;;;;;;;6.47;100.00;96462.38;5026464;28;19925;-79
2023/05/18 04:27:37;;;;;;;;;;;;;;;6.49;100.00;96462.16;5039487;28;19957;-79
2023/05/18 04:30:07;;;;;;;;;;;;;;;6.51;100.00;96460.13;5037017;28;19926;-78
2023/05/18 04:32:35;;;;;;;;;;;;;;;6.50;100.00;96463.81;5023227;28;19929;-79
2023/05/18 04:35:04;;;;;;;;;;;;;;;6.49;100.00;96467.53;5026081;28;19925;-78
2023/05/18 04:37:31;;;;;;;;;;;;;;;6.52;100.00;96460.94;5041379;28;20024;-78
2023/05/18 04:40:01;;;;;;;;;;;;;;;6.50;100.00;96469.19;5027529;28;19926;-78
2023/05/18 04:42:30;;;;;;;;;;;;;;;6.40;100.00;96472.25;5028198;28;20016;-79
2023/05/18 04:44:57;;;;;;;;;;;;;;;6.34;100.00;96464.19;5022425;28;19925;-79
2023/05/18 04:47:24;;;;;;;;;;;;;;;6.31;100.00;96467.25;5027322;28;19932;-79
2023/05/18 04:49:51;;;;;;;;;;;;;;;6.27;100.00;96468.72;5023777;28;19979;-78
2023/05/18 04:52:21;;;;;;;;;;;;;;;6.25;100.00;96470.75;5029515;28;19925;-79
2023/05/18 04:54:48;;;;;;;;;;;;;;;6.21;100.00;96469.50;5027595;28;19932;-78
2023/05/18 04:57:15;;;;;;;;;;;;;;;6.20;100.00;96478.59;5023238;28;19953;-78
2023/05/18 04:59:46;;;;;;;;;;;;;;;6.20;100.00;96473.22;5014067;28;20023;-80
2023/05/18 05:02:13;;;;;;;;;;;;;;;6.23;100.00;96475.47;5040207;28;19929;-78
2023/05/18 05:04:40;;;;;;;;;;;;;;;6.21;100.00;96464.16;5021253;28;19925;-79
2023/05/18 05:07:08;;;;;;;;;;;;;;;6.19;100.00;96479.59;5022913;28;19930;-79
2023/05/18 05:09:37;;;;;;;;;;;;;;;6.17;100.00;96468.25;5026660;28;20034;-79
2023/05/18 05:12:04;;;;;;;;;;;;;;;6.14;100.00;96468.63;5031282;28;20023;-79
2023/05/18 05:14:31;;;;;;;;;;;;;;;6.12;100.00;96470.72;5027289;28;19925;-78
2023/05/18 05:16:58;;;;;;;;;;;;;;;6.08;100.00;96471.09;5047624;28;19936;-78
2023/05/18 05:19:24;;;;;;;;;;;;;;;6.11;100.00;96469.88;5023795;28;19925;-79
2023/05/18 05:21:51;;;;;;;;;;;;;;;6.15;100.00;96481.00;5038936;28;19925;-79
2023/05/18 05:24:18;;;;;;;;;;;;;;;6.15;100.00;96472.97;5037284;28;19929;-78
2023/05/18 05:26:47;;;;;;;;;;;;;;;6.22;100.00;96471.13;5037110;28;19933;-79
2023/05/18 05:29:13;;;;;;;;;;;;;;;6.30;100.00;96470.97;5040058;28;20024;-79
2023/05/18 05:31:40;;;;;;;;;;;;;;;6.36;100.00;96472.88;5027065;28;19979;-80
2023/05/18 05:34:07;;;;;;;;;;;;;;;6.42;100.00;96472.88;5030801;28;19929;-79
2023/05/18 05:36:34;;;;;;;;;;;;;;;6.48;100.00;96473.91;5024094;28;19976;-79
2023/05/18 05:39:01;;;;;;;;;;;;;;;6.59;100.00;96467.97;5034659;28;19932;-78
2023/05/18 05:41:29;;;;;;;;;;;;;;;6.71;100.00;96476.28;5033450;28;19929;-79
2023/05/18 05:43:57;;;;;;;;;;;;;;;6.83;100.00;96478.16;5036835;28;19937;-79
2023/05/18 05:46:24;;;;;;;;;;;;;;;6.85;100.00;96477.94;5018884;28;19930;-79
2023/05/18 05:48:51;;;;;;;;;;;;;;;6.89;100.00;96483.75;5041043;28;19930;-79
2023/05/18 05:51:17;;;;;;;;;;;;;;;6.93;100.00;96479.63;5024808;28;19990;-78
2023/05/18 05:53:46;;;;;;;;;;;;;;;6.95;100.00;96475.69;5039576;28;19926;-79
2023/05/18 05:56:13;;;;;;;;;;;;;;;7.04;100.00;96482.53;5020024;28;20183;-79
2023/05/18 05:58:41;;;;;;;;;;;;;;;7.12;100.00;96481.50;5031329;28;19925;-78
2023/05/18 06:01:10;;;;;;;;;;;;;;;7.17;100.00;96487.06;5029926;28;19933;-78
2023/05/18 06:03:37;;;;;;;;;;;;;;;7.20;100.00;96483.97;5031542;28;19931;-78
2023/05/18 06:06:06;;;;;;;;;;;;;;;7.27;100.00;96486.66;5031020;28;19951;-78
2023/05/18 06:08:33;;;;;;;;;;;;;;;7.36;100.00;96491.63;5029884;28;19926;-78
2023/05/18 06:11:00;;;;;;;;;;;;;;;7.44;100.00;96499.47;5030242;28;19995;-78
2023/05/18 06:13:27;;;;;;;;;;;;;;;7.51;100.00;96497.63;5029053;28;19948;-78
2023/05/18 06:15:55;;;;;;;;;;;;;;;7.61;100.00;96505.25;5028359;28;19925;-78
2023/05/18 06:18:26;;;;;;;;;;;;;;;7.72;100.00;96503.81;5025804;28;19933;-79
2023/05/18 06:20:57;;;;;;;;;;;;;;;7.83;100.00;96509.38;5044001;28;20063;-79
2023/05/18 06:23:24;;;;;;;;;;;;;;;7.94;100.00;96495.28;5028327;28;19925;-78
2023/05/18 06:26:02;;;;;;;;;;;;;;;8.06;100.00;96500.88;5041403;28;19926;-78
2023/05/18 06:28:48;;;;;;;;;;;;;;;8.19;100.00;96502.66;5025531;28;19933;-80
2023/05/18 06:31:24;;;;;;;;;;;;;;;8.26;100.00;96498.91;5039609;28;19929;-78
2023/05/18 06:34:01;;;;;;;;;;;;;;;8.28;100.00;96499.53;5030852;28;19964;-79
2023/05/18 06:36:28;;;;;;;;;;;;;;;8.38;100.00;96506.38;5026560;28;20019;-78
2023/05/18 06:38:54;;;;;;;;;;;;;;;8.47;100.00;96507.78;5023304;28;19932;-79
2023/05/18 06:41:21;;;;;;;;;;;;;;;8.59;100.00;96503.41;5034780;28;19925;-78
2023/05/18 06:43:48;;;;;;;;;;;;;;;8.71;100.00;96501.66;5027718;28;19933;-79
2023/05/18 06:46:30;;;;;;;;;;;;;;;8.80;100.00;96505.78;5037902;28;19935;-78
2023/05/18 06:49:08;;;;;;;;;;;;;;;8.88;100.00;96499.31;5022089;28;19933;-78
2023/05/18 06:51:35;;;;;;;;;;;;;;;8.97;100.00;96508.78;5029375;28;19935;-80
2023/05/18 06:54:02;;;;;;;;;;;;;;;9.00;100.00;96506.50;5039067;28;19925;-80
2023/05/18 06:56:29;;;;;;;;;;;;;;;9.07;100.00;96512.66;5026428;28;19925;-80
2023/05/18 06:58:56;;;;;;;;;;;;;;;9.17;100.00;96511.38;5022144;28;19925;-80
2023/05/18 07:01:23;;;;;;;;;;;;;;;9.26;100.00;96512.75;5045537;28;20048;-80
2023/05/18 07:03:50;;;;;;;;;;;;;;;9.32;100.00;96511.88;5020288;28;19979;-80
2023/05/18 07:06:18;;;;;;;;;;;;;;;9.44;100.00;96510.13;5023120;28;19925;-80
2023/05/18 07:08:46;;;;;;;;;;;;;;;9.54;100.00;96502.38;5056233;28;19939;-80
2023/05/18 07:11:13;;;;;;;;;;;;;;;9.63;100.00;96511.00;5028486;28;19925;-79
2023/05/18 07:13:40;;;;;;;;;;;;;;;9.69;100.00;96508.28;5032831;28;19929;-80
2023/05/18 07:16:07;;;;;;;;;;;;;;;9.76;100.00;96503.66;5044980;28;19952;-80
2023/05/18 07:18:33;;;;;;;;;;;;;;;9.81;100.00;96513.75;5026248;28;19925;-80
2023/05/18 07:21:00;;;;;;;;;;;;;;;9.85;100.00;96505.00;5037637;28;20166;-79
2023/05/18 07:23:28;;;;;;;;;;;;;;;9.87;100.00;96508.28;5025145;28;19940;-80
2023/05/18 07:25:56;;;;;;;;;;;;;;;9.90;100.00;96512.44;5048547;28;19933;-80
2023/05/18 07:28:22;;;;;;;;;;;;;;;9.99;100.00;96508.41;5027048;28;19941;-79
2023/05/18 07:30:49;;;;;;;;;;;;;;;10.05;100.00;96509.38;5033822;28;19967;-79
2023/05/18 07:33:16;;;;;;;;;;;;;;;10.10;100.00;96513.06;5029334;28;19933;-80
2023/05/18 07:35:44;;;;;;;;;;;;;;;10.17;100.00;96511.16;5016700;28;19971;-80
2023/05/18 07:38:11;;;;;;;;;;;;;;;10.23;100.00;96520.22;5026187;28;19933;-80
2023/05/18 07:40:40;;;;;;;;;;;;;;;10.27;100.00;96518.72;5028891;28;19976;-80
2023/05/18 07:43:06;;;;;;;;;;;;;;;10.36;100.00;96509.28;5018055;28;19983;-79
2023/05/18 07:45:33;;;;;;;;;;;;;;;10.46;100.00;96511.47;5043819;28;19925;-79
2023/05/18 07:48:00;;;;;;;;;;;;;;;10.52;100.00;96522.19;5028088;28;19930;-79
2023/05/18 07:50:28;;;;;;;;;;;;;;;10.54;100.00;96514.69;5029056;28;19963;-80
2023/05/18 07:52:54;;;;;;;;;;;;;;;10.60;100.00;96521.88;5048049;28;20024;-80
2023/05/18 07:55:21;;;;;;;;;;;;;;;10.67;100.00;96520.97;5031901;28;19979;-79
2023/05/18 07:57:50;;;;;;;;;;;;;;;10.78;100.00;96520.22;5027209;28;19924;-80
2023/05/18 08:00:18;;;;;;;;;;;;;;;10.83;100.00;96512.25;5028549;28;19925;-80
2023/05/18 08:02:45;;;;;;;;;;;;;;;10.90;100.00;96521.06;5043831;28;19925;-80
2023/05/18 08:05:12;;;;;;;;;;;;;;;10.92;100.00;96524.38;5038425;28;19964;-80
2023/05/18 08:07:39;;;;;;;;;;;;;;;11.00;100.00;96521.38;5016282;28;19979;-80
2023/05/18 08:10:06;;;;;;;;;;;;;;;10.99;100.00;96522.41;5045228;28;19925;-81
2023/05/18 08:12:33;;;;;;;;;;;;;;;11.06;100.00;96525.06;5026725;28;19925;-80
2023/05/18 08:15:01;;;;;;;;;;;;;;;11.02;100.00;96529.25;5046102;28;19940;-80
2023/05/18 08:17:28;;;;;;;;;;;;;;;10.95;100.00;96543.69;5017063;28;19933;-80
2023/05/18 08:19:55;;;;;;;;;;;;;;;10.95;100.00;96537.44;5028033;28;19925;-80
2023/05/18 08:22:22;;;;;;;;;;;;;;;10.96;100.00;96533.69;5041195;28;20103;-80
2023/05/18 08:24:49;;;;;;;;;;;;;;;10.91;100.00;96536.25;5028089;28;19925;-80
2023/05/18 08:27:16;;;;;;;;;;;;;;;10.96;100.00;96534.53;5027939;28;19979;-81
2023/05/18 08:29:43;;;;;;;;;;;;;;;10.97;100.00;96532.66;5042432;28;19967;-80
2023/05/18 08:32:11;;;;;;;;;;;;;;;10.98;100.00;96536.97;5043701;28;20187;-80
2023/05/18 08:34:37;;;;;;;;;;;;;;;11.05;100.00;96543.13;5030287;28;20020;-79
2023/05/18 08:37:05;;;;;;;;;;;;;;;11.08;100.00;96531.84;5042338;28;19932;-78
2023/05/18 08:39:32;;;;;;;;;;;;;;;11.12;100.00;96527.66;5027841;28;20045;-79
2023/05/18 08:42:02;;;;;;;;;;;;;;;11.08;100.00;96531.84;5044853;28;19935;-80
2023/05/18 08:44:31;;;;;;;;;;;;;;;11.17;100.00;96535.88;5021077;28;20083;-79
2023/05/18 08:46:58;;;;;;;;;;;;;;;11.21;100.00;96541.66;5012809;28;19925;-80
2023/05/18 08:49:27;;;;;;;;;;;;;;;11.18;100.00;96542.94;5038111;28;19925;-79
2023/05/18 08:51:55;;;;;;;;;;;;;;;11.15;100.00;96537.97;5028289;28;19932;-79
2023/05/18 08:54:22;;;;;;;;;;;;;;;11.12;100.00;96543.88;5040962;28;19964;-80
2023/05/18 08:56:50;;;;;;;;;;;;;;;11.15;100.00;96548.78;5023425;28;19940;-80
2023/05/18 08:59:19;;;;;;;;;;;;;;;11.13;100.00;96545.53;5027913;28;19925;-79
2023/05/18 09:01:46;;;;;;;;;;;;;;;11.21;100.00;96556.00;5021389;28;19929;-79
2023/05/18 09:04:13;;;;;;;;;;;;;;;11.25;100.00;96546.38;5024966;28;19931;-78
2023/05/18 09:06:41;;;;;;;;;;;;;;;11.31;100.00;96542.75;5026408;28;19925;-80
2023/05/18 09:09:09;;;;;;;;;;;;;;;11.37;100.00;96541.84;5025961;28;19932;-81
2023/05/18 09:11:36;;;;;;;;;;;;;;;11.41;100.00;96544.06;5026690;28;19933;-82
2023/05/18 09:14:03;;;;;;;;;;;;;;;11.50;100.00;96540.81;5029101;28;19925;-82
2023/05/18 09:16:30;;;;;;;;;;;;;;;11.48;100.00;96548.34;5040247;28;20016;-81
2023/05/18 09:18:57;;;;;;;;;;;;;;;11.46;100.00;96546.91;5039777;28;19926;-81
2023/05/18 09:21:23;;;;;;;;;;;;;;;11.52;100.00;96554.94;5041406;28;19925;-82
2023/05/18 09:23:52;;;;;;;;;;;;;;;11.53;100.00;96551.16;5027267;28;19925;-81
2023/05/18 09:26:19;;;;;;;;;;;;;;;11.63;100.00;96556.84;5027852;28;19926;-82
2023/05/18 09:28:48;;;;;;;;;;;;;;;11.71;100.00;96548.41;5022869;28;19931;-81
2023/05/18 09:31:16;;;;;;;;;;;;;;;11.82;100.00;96554.09;5024542;28;19955;-82
2023/05/18 09:33:44;;;;;;;;;;;;;;;11.85;100.00;96549.03;5024693;28;19991;-82
2023/05/18 09:36:14;;;;;;;;;;;;;;;11.90;100.00;96554.59;5040708;28;19988;-82
2023/05/18 09:38:44;;;;;;;;;;;;;;;12.00;100.00;96553.97;5044272;28;19956;-82
2023/05/18 09:41:13;;;;;;;;;;;;;;;12.04;100.00;96553.28;5029453;28;19975;-81
2023/05/18 09:43:42;;;;;;;;;;;;;;;12.12;100.00;96555.66;5040417;28;19926;-82
2023/05/18 09:46:09;;;;;;;;;;;;;;;12.19;100.00;96566.34;5018590;28;19932;-81
2023/05/18 09:48:37;;;;;;;;;;;;;;;12.22;100.00;96559.66;5023834;28;19933;-82
2023/05/18 09:51:05;;;;;;;;;;;;;;;12.15;100.00;96553.53;5025487;28;19926;-82
2023/05/18 09:53:35;;;;;;;;;;;;;;;12.20;100.00;96562.59;5026472;28;19929;-81
2023/05/18 09:56:03;;;;;;;;;;;;;;;12.33;100.00;96566.97;5035562;28;20026;-80
2023/05/18 09:58:34;;;;;;;;;;;;;;;12.17;100.00;96559.53;5040905;28;19925;-81
2023/05/18 10:01:01;;;;;;;;;;;;;;;12.15;100.00;96564.38;5036961;28;19992;-81
2023/05/18 10:03:31;;;;;;;;;;;;;;;12.17;100.00;96559.53;5038441;28;19925;-81
2023/05/18 10:06:01;;;;;;;;;;;;;;;12.23;100.00;96558.59;5017986;28;19933;-81
2023/05/18 10:08:27;;;;;;;;;;;;;;;12.30;100.00;96556.59;5043821;28;19925;-82
2023/05/18 10:10:55;;;;;;;;;;;;;;;12.37;100.00;96562.72;5024892;28;19955;-82
2023/05/18 10:13:21;;;;;;;;;;;;;;;12.41;100.00;96563.91;5044259;28;19979;-81
2023/05/18 10:15:52;;;;;;;;;;;;;;;12.45;100.00;96559.63;5024420;28;20004;-82
2023/05/18 10:18:21;;;;;;;;;;;;;;;12.45;100.00;96560.47;5022407;28;19925;-81
2023/05/18 10:20:49;;;;;;;;;;;;;;;12.48;100.00;96560.00;5028260;28;19925;-81
2023/05/18 10:23:15;;;;;;;;;;;;;;;12.53;100.00;96570.09;5030449;28;19932;-82
2023/05/18 10:25:45;;;;;;;;;;;;;;;12.57;100.00;96565.88;5040319;28;19925;-81
2023/05/18 10:28:13;;;;;;;;;;;;;;;12.52;100.00;96565.75;5036076;28;20449;-83
2023/05/18 10:30:40;;;;;;;;;;;;;;;12.55;100.00;96564.47;5023736;28;19932;-81
2023/05/18 10:33:10;;;;;;;;;;;;;;;12.61;100.00;96564.31;5026081;28;20004;-82
2023/05/18 10:35:38;;;;;;;;;;;;;;;12.76;100.00;96563.84;5028772;28;19925;-81
2023/05/18 10:38:07;;;;;;;;;;;;;;;12.75;100.00;96573.88;5024776;28;19925;-82
2023/05/18 10:40:34;;;;;;;;;;;;;;;12.73;100.00;96570.56;5017767;28;19983;-82
2023/05/18 10:43:02;;;;;;;;;;;;;;;12.65;100.00;96575.53;5016383;28;19925;-81
2023/05/18 10:45:29;;;;;;;;;;;;;;;12.59;100.00;96573.78;5035027;28;19932;-81
2023/05/18 10:47:57;;;;;;;;;;;;;;;12.66;100.00;96578.00;5029853;28;19926;-83
2023/05/18 10:50:26;;;;;;;;;;;;;;;12.65;100.00;96575.53;5032428;28;19928;-82
2023/05/18 10:52:53;;;;;;;;;;;;;;;12.64;100.00;96573.88;5030513;28;19936;-81
2023/05/18 10:55:20;;;;;;;;;;;;;;;12.70;100.00;96572.91;5029629;28;19925;-82
2023/05/18 10:57:51;;;;;;;;;;;;;;;12.67;100.00;96568.81;5029893;28;19925;-82
2023/05/18 11:00:18;;;;;;;;;;;;;;;12.67;100.00;96565.28;5043540;28;19965;-81
2023/05/18 11:02:46;;;;;;;;;;;;;;;12.59;100.00;96565.66;5036629;28;19932;-80
2023/05/18 11:05:12;;;;;;;;;;;;;;;12.51;100.00;96567.63;5027780;28;20012;-82
2023/05/18 11:07:45;;;;;;;;;;;;;;;12.50;100.00;96568.69;5022555;28;19926;-81
2023/05/18 11:10:12;;;;;;;;;;;;;;;12.57;100.00;96568.59;5029467;28;20016;-81
2023/05/18 11:12:40;;;;;;;;;;;;;;;12.60;100.00;96576.22;5045028;28;19925;-82
2023/05/18 11:15:08;;;;;;;;;;;;;;;12.61;100.00;96572.47;5041398;28;19926;-83
2023/05/18 11:17:35;;;;;;;;;;;;;;;12.52;100.00;96576.59;5031196;28;19929;-82
2023/05/18 11:20:12;;;;;;;;;;;;;;;12.52;100.00;96577.41;5042708;28;19964;-83
2023/05/18 11:22:44;;;;;;;;;;;;;;;12.50;100.00;96584.16;5026146;28;19925;-81
2023/05/18 11:25:26;;;;;;;;;;;;;;;12.48;100.00;96581.66;5022698;28;19926;-81
2023/05/18 11:27:53;;;;;;;;;;;;;;;12.50;100.00;96584.16;5019454;28;19929;-80
2023/05/18 11:30:26;;;;;;;;;;;;;;;12.55;100.00;96578.81;5031503;28;20001;-81
2023/05/18 11:33:07;;;;;;;;;;;;;;;12.57;100.00;96575.88;5031060;28;19925;-82
2023/05/18 11:35:36;;;;;;;;;;;;;;;12.67;100.00;96573.41;5025711;28;19929;-82
2023/05/18 11:38:11;;;;;;;;;;;;;;;12.70;100.00;96568.31;5040726;28;20016;-81
2023/05/18 11:40:45;;;;;;;;;;;;;;;12.72;100.00;96577.03;5019427;28;19933;-81
2023/05/18 11:43:19;;;;;;;;;;;;;;;12.71;100.00;96577.28;5040931;28;19926;-80
2023/05/18 11:45:51;;;;;;;;;;;;;;;12.76;100.00;96578.19;5042548;28;20083;-81
2023/05/18 11:48:20;;;;;;;;;;;;;;;12.71;100.00;96580.81;5024964;28;19933;-80
2023/05/18 11:50:47;;;;;;;;;;;;;;;12.74;100.00;96574.09;5021249;28;19929;-80
2023/05/18 11:53:17;;;;;;;;;;;;;;;12.74;100.00;96574.94;5027888;28;19936;-80
2023/05/18 11:55:44;;;;;;;;;;;;;;;12.65;100.00;96581.78;5027003;28;19925;-80
2023/05/18 11:58:17;;;;;;;;;;;;;;;12.53;100.00;96583.66;5029494;28;19960;-81
2023/05/18 12:00:46;;;;;;;;;;;;;;;12.49;100.00;96582.50;5041037;28;19937;-81
2023/05/18 12:03:13;;;;;;;;;;;;;;;12.43;100.00;96578.81;5029783;28;19972;-81
2023/05/18 12:05:42;;;;;;;;;;;;;;;12.43;100.00;96583.41;5041174;28;19940;-81
2023/05/18 12:08:09;;;;;;;;;;;;;;;12.52;100.00;96582.00;5031272;28;19926;-80
2023/05/18 12:10:38;;;;;;;;;;;;;;;12.58;100.00;96577.53;5025869;28;20020;-80
2023/05/18 12:13:05;;;;;;;;;;;;;;;12.66;100.00;96580.72;5030796;28;19978;-81
2023/05/18 12:15:33;;;;;;;;;;;;;;;12.74;100.00;96574.94;5042792;28;19948;-81
2023/05/18 12:18:00;;;;;;;;;;;;;;;12.64;100.00;96574.69;5043390;28;19996;-82
2023/05/18 12:20:27;;;;;;;;;;;;;;;12.67;100.00;96576.94;5030492;28;19925;-82
2023/05/18 12:22:55;;;;;;;;;;;;;;;12.64;100.00;96582.00;5025850;28;19937;-80
2023/05/18 12:25:23;;;;;;;;;;;;;;;12.68;100.00;96578.56;5030200;28;19925;-81
2023/05/18 12:27:52;;;;;;;;;;;;;;;12.72;100.00;96577.03;5026063;28;19929;-82
2023/05/18 12:30:21;;;;;;;;;;;;;;;12.70;100.00;96579.16;5041941;28;19925;-81
2023/05/18 12:32:48;;;;;;;;;;;;;;;12.63;100.00;96577.63;5049979;28;19933;-81
2023/05/18 12:35:15;;;;;;;;;;;;;;;12.65;100.00;96581.78;5049503;28;19936;-80
2023/05/18 12:37:42;;;;;;;;;;;;;;;12.63;100.00;96577.63;5042235;28;19933;-80
2023/05/18 12:40:11;;;;;;;;;;;;;;;12.66;100.00;96579.88;5035713;28;19925;-81
2023/05/18 12:42:39;;;;;;;;;;;;;;;12.67;100.00;96563.41;5017993;28;19925;-80
2023/05/18 12:45:08;;;;;;;;;;;;;;;12.67;100.00;96570.69;5049635;28;19931;-81
2023/05/18 12:47:40;;;;;;;;;;;;;;;12.68;100.00;96570.44;5037169;28;19925;-81
2023/05/18 12:50:07;;;;;;;;;;;;;;;12.72;100.00;96571.63;5030262;28;19925;-81